Central Fund of Canada Limited (USA) (NYSEMKT:CEF)

CAPS Rating: 3 out of 5

Provides an investment alternative for investors interested in holding marketable gold and silver related investments. Invests primarily in long-term holdings of gold and silver bullion.

Results 1 - 99 of 731 : 1 2 3 4 5 6 7 8 Next »
Top
Pick
Member Name Member
Rating
Start
Date
Call Time
Frame
Start
Price
Stock
Gain
Index
Gain
Score Commentary
JesseL < 20 6/25/2014 Outperform 5Y $14.33 -4.26% +3.09% -7.35 0 Comment
bocacampeon 93.57 3/31/2014 Outperform 5Y $13.85 -0.94% +7.29% -8.22 0 Comment
Momentum22 29.75 3/18/2014 Outperform 5Y $14.74 -6.92% +6.73% -13.65 0 Comment
goingdown < 20 3/12/2014 Outperform 5Y $14.84 -7.52% +7.35% -14.87 0 Comment
Xucolat 53.87 11/17/2009 2/17/2014 Outperform 5Y $13.94 -1.58% +80.54% -82.12 1 Comment
unixopsys 43.74 1/22/2014 Outperform 1Y $13.57 +1.11% +8.60% -7.49 0 Comment
wackyfunster 81.37 1/16/2014 Outperform 5Y $13.67 +0.37% +8.67% -8.30 0 Comment
2win < 20 1/14/2014 Outperform NS $13.87 -1.08% +9.86% -10.94 1 Comment
timomimo 87.87 1/2/2014 Outperform 5Y $13.58 +1.03% +9.48% -8.45 0 Comment
BrodyBorder 28.16 12/5/2013 Outperform 5Y $13.30 +3.16% +11.64% -8.48 0 Comment
emptylarder 33.70 11/13/2013 Outperform 5Y $13.98 -1.86% +12.81% -14.67 0 Comment
mwisslead 59.01 10/29/2013 Outperform 3Y $15.22 -9.86% +13.24% -23.09 0 Comment
seakat45 < 20 10/14/2013 Outperform 5Y $14.15 -3.04% +18.34% -21.39 0 Comment
BruceInCola 98.30 9/24/2013 Outperform 5Y $14.40 -4.73% +17.86% -22.59 0 Comment
maxy88 28.71 9/10/2013 Outperform 5Y $15.55 -11.77% +18.86% -30.63 0 Comment
mistermiranga 97.75 8/27/2013 Outperform 5Y $16.63 -17.47% +22.05% -39.53 0 Comment
kurtdabear 31.46 8/23/2013 Outperform 5Y $16.21 -15.36% +20.41% -35.77 1 Comment
aguadaboca 32.50 7/30/2013 Outperform 5Y $14.42 -4.86% +18.42% -23.28 0 Comment
sail2brasil 36.10 7/24/2013 Outperform 5Y $14.82 -7.42% +18.60% -26.02 0 Comment
winebroker2000 20.14 7/24/2013 Outperform 5Y $14.80 -7.30% +17.94% -25.24 0 Comment
Rangergold67 < 20 7/15/2013 Outperform 5Y $14.19 -3.32% +19.22% -22.53 0 Comment
bigmacm22 < 20 7/12/2013 Outperform 5Y $14.15 -3.04% +19.63% -22.67 0 Comment
cashsage 29.31 7/8/2013 Outperform 5Y $13.62 +0.73% +22.16% -21.44 0 Comment
Adam1226 25.41 1/19/2010 7/6/2013 Outperform 5Y $14.35 -4.39% +74.83% -79.22 1 Comment
Swimms 69.78 6/21/2013 Outperform 5Y $14.14 -2.98% +26.03% -29.01 0 Comment
Stas3000 85.51 6/18/2013 Outperform 5Y $15.49 -11.43% +21.52% -32.94 0 Comment
Momentum21 95.67 5/24/2013 Outperform 5Y $15.71 -12.67% +21.75% -34.42 0 Comment
u2monee < 20 5/21/2013 Outperform 5Y $15.53 -11.65% +19.85% -31.51 0 Comment
SellOrNotinMay < 20 5/2/2013 Outperform 3M $16.82 -18.43% +25.38% -43.81 0 Comment
iannnn 28.92 4/19/2013 Outperform 5Y $16.30 -15.82% +29.61% -45.44 0 Comment
binve < 20 4/18/2013 Outperform NS $16.13 -14.94% +29.50% -44.44 0 Comment
kainvest 55.55 4/16/2013 Outperform 1Y $16.47 -16.69% +27.72% -44.41 1 Comment
vinelli 75.32 4/15/2013 Outperform 5Y $16.03 -14.42% +26.85% -41.27 0 Comment
goldminer11 < 20 4/15/2013 Outperform 5Y $16.08 -14.67% +26.80% -41.48 0 Comment
TheBest70 < 20 3/22/2013 Outperform 5Y $19.76 -30.56% +29.01% -59.57 0 Comment
Terok1313 30.71 3/8/2013 Outperform 3Y $19.56 -29.85% +28.96% -58.81 0 Comment
tinyworld < 20 3/7/2013 Outperform 1Y $19.74 -30.49% +29.44% -59.93 1 Comment
rzld36 29.81 3/6/2013 Outperform 5Y $19.46 -29.49% +29.33% -58.81 0 Comment
VeryShiny < 20 3/5/2013 Outperform 3M $19.65 -30.17% +30.32% -60.49 0 Comment
OoohShiny < 20 2/25/2013 Outperform 3M $20.01 -31.42% +32.22% -63.65 0 Comment
Gloriness < 20 2/21/2013 Outperform 3M $19.63 -30.10% +32.99% -63.09 0 Comment
IndianaLarry < 20 2/19/2013 Underperform 3M $20.17 -31.97% +31.42% +63.39 0 Comment
This player feels very strongly about this pick and has marked it a Top Pick. Top Picks do not affect a player’s score. rd80 98.26 2/4/2013 Outperform 5Y $21.49 -36.14% +33.22% -69.36 1 Comment
JeffersonAdams 85.84 3/26/2008 1/29/2013 Outperform 5Y $13.26 +3.49% +54.45% -50.96 0 Comment
galpick 43.49 10/1/2008 1/27/2013 Outperform 5Y $10.95 +25.34% +78.39% -53.05 0 Comment
Vince1172 28.45 1/24/2013 Outperform 5Y $21.90 -37.34% +34.26% -71.60 0 Comment
piesyor < 20 1/22/2013 Underperform 1Y $21.94 -37.45% +35.00% +72.46 0 Comment
jerryguru69 94.83 12/13/2012 Underperform 5Y $22.41 -38.76% +39.62% +78.39 0 Comment
bolthole22 < 20 11/27/2012 Outperform 5Y $23.13 -40.68% +42.45% -83.12 0 Comment
Adenovir 78.79 8/31/2007 11/26/2012 Outperform NS $9.07 +51.19% +42.76% +8.42 1 Comment
acesurewould < 20 11/19/2012 Outperform 5Y $22.88 -40.02% +44.65% -84.67 0 Comment
JoeleneW 82.30 10/19/2007 10/1/2012 Outperform 5Y $10.08 +36.11% +37.04% -0.93 0 Comment
whatevmatil < 20 9/28/2012 Outperform 5Y $23.79 -42.34% +38.98% -81.31 0 Comment
stockdatamaster 57.13 9/19/2012 Outperform 5Y $23.86 -42.51% +36.42% -78.93 0 Comment
gman444 28.77 9/5/2012 Outperform 5Y $22.34 -38.57% +41.93% -80.50 0 Comment
puccini3005 29.54 6/24/2009 8/27/2012 Outperform 3Y $11.75 +16.80% +123.27% -106.47 1 Comment
tcpprog < 20 8/24/2012 Outperform 5Y $21.32 -35.64% +42.72% -78.36 0 Comment
oldfashionedway 35.35 8/23/2011 8/22/2012 Outperform 3Y $25.13 -45.41% +73.89% -119.30 0 Comment
Moekie < 20 8/6/2012 Outperform 5Y $20.14 -31.86% +42.92% -74.79 0 Comment
This player feels very strongly about this pick and has marked it a Top Pick. Top Picks do not affect a player’s score. DarthMaul09 29.61 7/31/2012 Outperform 5Y $20.10 -31.73% +44.75% -76.49 1 Comment
rock338xxx < 20 6/7/2012 Outperform 5Y $20.98 -34.59% +50.03% -84.63 0 Comment
DanCooper76 < 20 6/1/2012 Outperform 5Y $19.62 -30.07% +55.08% -85.14 1 Comment
VanWilder < 20 5/11/2012 Outperform 5Y $19.79 -30.67% +47.13% -77.80 0 Comment
jkens < 20 10/29/2007 5/5/2012 Outperform 5Y $10.36 +32.45% +36.30% -3.85 0 Comment
marcd77 < 20 5/2/2012 Outperform 3Y $20.98 -34.59% +43.12% -77.71 0 Comment
phatchips767 < 20 4/24/2012 Outperform 1Y $21.09 -34.94% +46.26% -81.20 1 Comment
RockyMountainMan 98.01 4/10/2012 Outperform 5Y $21.39 -35.85% +45.16% -81.01 0 Comment
motleyanimal 86.99 2/29/2012 Outperform NS $22.93 -40.17% +46.06% -86.23 0 Comment
eeibbay < 20 11/30/2011 Outperform 5Y $22.30 -38.49% +61.41% -99.90 0 Comment
elboxeo < 20 11/25/2011 Outperform 5Y $21.41 -35.91% +72.07% -107.97 0 Comment
RallyCry < 20 11/23/2011 Outperform 5Y $21.69 -36.73% +69.60% -106.34 0 Comment
jdill23 < 20 11/22/2011 Outperform 1Y $22.05 -37.77% +68.19% -105.96 0 Comment
G8BigBoom 69.06 11/14/2011 Underperform 5Y $23.37 -41.30% +58.69% +99.99 0 Comment
LZAG < 20 11/11/2011 Outperform 5Y $23.38 -41.33% +59.14% -100.47 0 Comment
dss1343 < 20 11/3/2011 Outperform 1Y $23.02 -40.41% +60.56% -100.97 0 Comment
eldonbmyrtlbch < 20 10/28/2011 Outperform 3Y $23.26 -41.03% +56.45% -97.47 0 Comment
taylor2123 < 20 10/20/2011 Outperform 5Y $20.40 -32.74% +65.07% -97.81 0 Comment
Teknowizz 97.28 10/10/2011 Outperform 5Y $21.60 -36.47% +70.16% -106.64 0 Comment
dyskinetic 26.03 10/4/2011 Outperform 5Y $20.18 -32.01% +83.67% -115.67 0 Comment
JFiege 29.88 10/4/2011 Outperform 5Y $20.20 -32.08% +83.24% -115.32 0 Comment
squirrelgiggin 99.80 10/3/2011 Underperform 5Y $21.21 -35.31% +78.02% +113.32 0 Comment
Spyrig < 20 9/30/2011 Outperform 5Y $20.87 -34.25% +74.74% -108.99 0 Comment
veronafonte < 20 9/28/2011 Outperform 1Y $20.57 -33.31% +72.73% -106.05 0 Comment
mountaincouger 30.96 9/27/2011 Outperform 5Y $22.06 -37.79% +68.19% -105.99 0 Comment
cvdynasty2 99.83 9/26/2011 Outperform 5Y $21.01 -34.70% +74.34% -109.04 0 Comment
Fudex < 20 9/26/2011 Outperform 5Y $20.39 -32.71% +74.72% -107.43 0 Comment
This player feels very strongly about this pick and has marked it a Top Pick. Top Picks do not affect a player’s score. SamTheHobbit 29.89 9/23/2011 Outperform 5Y $20.99 -34.63% +76.81% -111.43 0 Comment
cvdynasty 99.95 9/23/2011 Outperform 5Y $20.99 -34.63% +76.81% -111.43 0 Comment
cecamadocv2 99.97 9/23/2011 Outperform 5Y $21.14 -35.09% +76.15% -111.24 0 Comment
EGTalbot < 20 9/23/2011 Outperform 3Y $21.70 -36.76% +76.59% -113.35 0 Comment
imobillc < 20 9/22/2011 Outperform 5Y $23.89 -42.58% +76.82% -119.40 0 Comment
pfoods6 < 20 9/20/2011 Outperform 1Y $25.18 -45.51% +66.18% -111.70 0 Comment
scluffman < 20 9/22/2010 9/17/2011 Outperform 3Y $16.34 -16.01% +76.43% -92.44 0 Comment
MathMusic 93.72 8/9/2011 9/15/2011 Outperform 1Y $22.88 -40.03% +74.74% -114.77 1 Comment
stationfool 54.25 9/14/2011 Outperform 5Y $25.05 -45.23% +68.63% -113.86 1 Comment
peachberrytea 71.70 9/13/2011 Outperform NS $24.55 -44.12% +71.08% -115.20 0 Comment
mmourani < 20 9/12/2011 Outperform 5Y $24.17 -43.24% +74.39% -117.63 0 Comment
frs62 81.52 7/7/2008 9/8/2011 Outperform 5Y $13.24 +3.65% +62.93% -59.28 1 Comment
This player feels very strongly about this pick and has marked it a Top Pick. Top Picks do not affect a player’s score. Beorn10 29.84 9/7/2011 Outperform 5Y $24.85 -44.79% +68.60% -113.40 0 Comment

Featured Broker Partners


Advertisement